createdAt,value
2023-01-28T00:00:35.175Z,7.82
2023-01-28T00:03:01.603Z,8.27
2023-01-28T00:05:29.862Z,6.72
2023-01-28T00:07:57.866Z,7.85
2023-01-28T00:10:24.331Z,7.35
2023-01-28T00:12:50.969Z,6.70
2023-01-28T00:15:17.314Z,7.10
2023-01-28T00:17:43.706Z,6.38
2023-01-28T00:20:10.439Z,7.28
2023-01-28T00:22:36.838Z,6.55
2023-01-28T00:25:03.246Z,6.50
2023-01-28T00:27:29.591Z,7.95
2023-01-28T00:29:55.992Z,9.35
2023-01-28T00:32:22.431Z,6.47
2023-01-28T00:34:50.084Z,6.30
2023-01-28T00:37:16.459Z,6.40
2023-01-28T00:39:42.913Z,6.45
2023-01-28T00:42:09.257Z,7.05
2023-01-28T00:44:36.326Z,7.82
2023-01-28T00:47:02.705Z,7.55
2023-01-28T00:49:29.001Z,6.53
2023-01-28T00:51:55.351Z,6.80
2023-01-28T00:54:21.909Z,8.48
2023-01-28T00:56:48.334Z,7.78
2023-01-28T00:59:15.259Z,7.75
2023-01-28T01:01:41.653Z,6.95
2023-01-28T01:04:08.015Z,7.65
2023-01-28T01:06:35.562Z,6.88
2023-01-28T01:09:02.636Z,6.20
2023-01-28T01:11:29.023Z,6.55
2023-01-28T01:13:57.076Z,7.65
2023-01-28T01:16:24.651Z,5.85
2023-01-28T01:18:52.391Z,5.93
2023-01-28T01:21:19.854Z,5.55
2023-01-28T01:23:46.662Z,5.85
2023-01-28T01:26:13.429Z,4.93
2023-01-28T01:28:40.203Z,7.13
2023-01-28T01:31:07.923Z,5.28
2023-01-28T01:33:34.469Z,6.30
2023-01-28T01:36:00.965Z,3.65
2023-01-28T01:38:27.738Z,4.97
2023-01-28T01:40:58.674Z,6.28
2023-01-28T01:43:25.989Z,5.60
2023-01-28T01:45:54.792Z,4.72
2023-01-28T01:48:32.773Z,5.28
2023-01-28T01:51:00.372Z,6.88
2023-01-28T01:53:28.261Z,5.78
2023-01-28T01:55:56.521Z,4.72
2023-01-28T01:58:25.997Z,7.50
2023-01-28T02:00:52.444Z,6.90
2023-01-28T02:03:22.186Z,5.20
2023-01-28T02:05:50.176Z,4.70
2023-01-28T02:08:22.380Z,4.75
2023-01-28T02:10:50.632Z,4.70
2023-01-28T02:13:17.790Z,4.90
2023-01-28T02:15:44.669Z,4.75
2023-01-28T02:18:11.110Z,5.35
2023-01-28T02:20:37.479Z,7.82
2023-01-28T02:23:22.182Z,4.47
2023-01-28T02:26:00.429Z,4.35
2023-01-28T02:28:34.071Z,4.18
2023-01-28T02:31:03.358Z,4.05
2023-01-28T02:33:34.826Z,4.20
2023-01-28T02:36:06.237Z,4.32
2023-01-28T02:38:36.032Z,2.92
2023-01-28T02:41:09.869Z,3.10
2023-01-28T02:43:36.255Z,3.35
2023-01-28T02:46:29.291Z,3.35
2023-01-28T02:48:55.757Z,3.08
2023-01-28T02:51:40.925Z,4.53
2023-01-28T02:54:12.040Z,3.33
2023-01-28T02:56:56.998Z,3.55
2023-01-28T02:59:32.197Z,3.78
2023-01-28T03:02:21.683Z,3.33
2023-01-28T03:04:50.067Z,2.80
2023-01-28T03:07:17.653Z,2.47
2023-01-28T03:09:45.695Z,2.53
2023-01-28T03:12:32.677Z,2.92
2023-01-28T03:15:37.358Z,3.75
2023-01-28T03:18:30.183Z,2.60
2023-01-28T03:21:34.250Z,2.55
2023-01-28T03:24:21.619Z,2.65
2023-01-28T03:27:13.314Z,2.65
2023-01-28T03:29:58.917Z,3.30
2023-01-28T03:32:43.988Z,3.17
2023-01-28T03:35:29.785Z,2.50
2023-01-28T03:38:00.017Z,3.35
2023-01-28T03:40:26.964Z,3.00
2023-01-28T03:42:54.217Z,4.07
2023-01-28T03:45:21.558Z,2.78
2023-01-28T03:47:47.902Z,3.25
2023-01-28T03:50:14.273Z,2.75
2023-01-28T03:52:40.647Z,4.32
2023-01-28T03:55:14.012Z,3.90
2023-01-28T03:57:40.870Z,5.90
2023-01-28T04:00:07.889Z,3.33
2023-01-28T04:02:35.485Z,3.45
2023-01-28T04:05:07.073Z,3.17
2023-01-28T04:07:33.778Z,2.75
2023-01-28T04:10:01.836Z,5.63
2023-01-28T04:12:28.253Z,2.70
2023-01-28T04:14:54.614Z,3.70
2023-01-28T04:17:21.006Z,3.03
2023-01-28T04:19:47.320Z,4.07
2023-01-28T04:22:13.783Z,3.95
2023-01-28T04:24:40.136Z,3.38
2023-01-28T04:27:06.527Z,3.47
2023-01-28T04:29:32.910Z,3.92
2023-01-28T04:31:59.227Z,2.90
2023-01-28T04:34:25.613Z,2.67
2023-01-28T04:36:51.969Z,3.20
2023-01-28T04:39:18.294Z,3.95
2023-01-28T04:41:44.640Z,5.55
2023-01-28T04:44:11.024Z,3.70
2023-01-28T04:46:37.473Z,4.25
2023-01-28T04:49:04.217Z,3.17
2023-01-28T04:51:30.666Z,3.00
2023-01-28T04:53:57.054Z,3.63
2023-01-28T04:56:23.537Z,2.83
2023-01-28T04:58:49.848Z,3.25
2023-01-28T05:01:16.210Z,3.10
2023-01-28T05:03:42.596Z,2.55
2023-01-28T05:06:09.056Z,4.78
2023-01-28T05:08:35.352Z,3.22
2023-01-28T05:11:01.730Z,5.93
2023-01-28T05:13:28.137Z,3.08
2023-01-28T05:15:54.451Z,3.83
2023-01-28T05:18:20.927Z,3.10
2023-01-28T05:20:48.252Z,5.57
2023-01-28T05:23:14.666Z,4.05
2023-01-28T05:25:41.097Z,3.92
2023-01-28T05:28:07.759Z,3.88
2023-01-28T05:30:34.120Z,3.85
2023-01-28T05:33:00.544Z,3.08
2023-01-28T05:35:27.016Z,4.00
2023-01-28T05:37:53.485Z,5.85
2023-01-28T05:40:20.055Z,4.28
2023-01-28T05:42:46.462Z,3.90
2023-01-28T05:45:13.020Z,4.15
2023-01-28T05:47:40.050Z,3.50
2023-01-28T05:50:06.999Z,3.17
2023-01-28T05:52:33.450Z,2.88
2023-01-28T05:54:59.851Z,4.00
2023-01-28T05:57:26.199Z,3.42
2023-01-28T05:59:52.572Z,4.53
2023-01-28T06:02:18.897Z,5.70
2023-01-28T06:04:45.295Z,3.92
2023-01-28T06:07:13.348Z,5.25
2023-01-28T06:09:39.752Z,3.15
2023-01-28T06:12:06.161Z,3.63
2023-01-28T06:14:32.511Z,3.10
2023-01-28T06:16:58.819Z,3.40
2023-01-28T06:19:25.132Z,2.97
2023-01-28T06:21:51.540Z,3.42
2023-01-28T06:24:18.067Z,3.13
2023-01-28T06:26:44.413Z,2.78
2023-01-28T06:29:10.830Z,4.07
2023-01-28T06:31:37.223Z,4.03
2023-01-28T06:34:03.631Z,4.50
2023-01-28T06:36:30.116Z,4.38
2023-01-28T06:38:56.500Z,3.85
2023-01-28T06:41:22.941Z,5.22
2023-01-28T06:43:49.327Z,3.10
2023-01-28T06:46:15.825Z,4.28
2023-01-28T06:48:42.200Z,4.80
2023-01-28T06:51:08.533Z,3.42
2023-01-28T06:53:34.961Z,3.70
2023-01-28T06:56:01.330Z,3.60
2023-01-28T06:58:28.174Z,3.88
2023-01-28T07:00:54.571Z,4.05
2023-01-28T07:03:21.140Z,4.85
2023-01-28T07:05:47.515Z,3.42
2023-01-28T07:08:13.938Z,3.80
2023-01-28T07:10:40.340Z,4.10
2023-01-28T07:13:06.673Z,4.47
2023-01-28T07:15:33.087Z,4.22
2023-01-28T07:17:59.817Z,5.32
2023-01-28T07:20:26.216Z,4.20
2023-01-28T07:22:52.684Z,4.50
2023-01-28T07:25:19.140Z,5.47
2023-01-28T07:27:52.975Z,4.57
2023-01-28T07:30:20.482Z,4.43
2023-01-28T07:32:46.957Z,3.88
2023-01-28T07:35:13.733Z,4.18
2023-01-28T07:37:40.114Z,4.70
2023-01-28T07:40:06.801Z,3.72
2023-01-28T07:42:33.305Z,3.67
2023-01-28T07:44:59.723Z,7.80
2023-01-28T07:47:26.294Z,5.82
2023-01-28T07:49:52.709Z,8.25
2023-01-28T07:52:19.111Z,7.28
2023-01-28T07:54:46.095Z,5.97
2023-01-28T07:57:12.425Z,4.82
2023-01-28T07:59:38.773Z,4.90
2023-01-28T08:02:05.233Z,6.32
2023-01-28T08:04:31.629Z,6.70
2023-01-28T08:06:58.107Z,5.65
2023-01-28T08:09:24.623Z,4.30
2023-01-28T08:11:51.230Z,5.95
2023-01-28T08:14:17.595Z,4.32
2023-01-28T08:16:44.014Z,4.70
2023-01-28T08:19:10.835Z,5.65
2023-01-28T08:21:37.199Z,4.63
2023-01-28T08:24:03.669Z,3.95
2023-01-28T08:26:30.033Z,5.35
2023-01-28T08:28:56.484Z,3.97
2023-01-28T08:31:22.957Z,6.00
2023-01-28T08:33:49.387Z,5.18
2023-01-28T08:36:15.804Z,5.28
2023-01-28T08:38:43.401Z,5.78
2023-01-28T08:41:09.790Z,6.03
2023-01-28T08:43:36.127Z,4.22
2023-01-28T08:46:05.228Z,4.88
2023-01-28T08:48:31.643Z,5.25
2023-01-28T08:51:00.834Z,5.68
2023-01-28T08:53:27.234Z,5.53
2023-01-28T08:55:53.677Z,5.75
2023-01-28T08:58:20.096Z,5.25
2023-01-28T09:00:46.830Z,5.35
2023-01-28T09:03:13.242Z,5.05
2023-01-28T09:05:39.985Z,5.15
2023-01-28T09:08:10.741Z,6.15
2023-01-28T09:10:37.803Z,7.70
2023-01-28T09:13:22.066Z,4.85
2023-01-28T09:15:48.711Z,5.97
2023-01-28T09:18:15.130Z,5.05
2023-01-28T09:20:41.645Z,6.18
2023-01-28T09:23:08.384Z,5.38
2023-01-28T09:25:36.257Z,5.15
2023-01-28T09:28:02.849Z,7.03
2023-01-28T09:30:29.298Z,4.85
2023-01-28T09:32:56.302Z,5.68
2023-01-28T09:35:22.882Z,6.57
2023-01-28T09:37:49.376Z,7.50
2023-01-28T09:40:30.271Z,6.93
2023-01-28T09:43:05.600Z,5.50
2023-01-28T09:45:38.584Z,6.10
2023-01-28T09:48:05.566Z,5.13
2023-01-28T09:50:33.812Z,6.03
2023-01-28T09:53:03.195Z,5.97
2023-01-28T09:55:44.519Z,6.60
2023-01-28T09:58:12.136Z,6.63
2023-01-28T10:00:47.709Z,8.95
2023-01-28T10:03:32.857Z,4.78
2023-01-28T10:06:17.965Z,4.55
2023-01-28T10:08:47.134Z,6.25
2023-01-28T10:11:22.599Z,4.90
2023-01-28T10:13:53.882Z,7.78
2023-01-28T10:16:38.660Z,7.70
2023-01-28T10:19:17.176Z,6.20
2023-01-28T10:21:52.689Z,5.00
2023-01-28T10:24:39.901Z,7.53
2023-01-28T10:27:14.445Z,5.82
2023-01-28T10:29:43.963Z,8.02
2023-01-28T10:32:28.506Z,6.15
2023-01-28T10:34:55.153Z,4.93
2023-01-28T10:37:21.758Z,5.63
2023-01-28T10:39:48.312Z,4.55
2023-01-28T10:42:26.628Z,3.67
2023-01-28T10:44:53.277Z,6.82
2023-01-28T10:47:38.260Z,5.47
2023-01-28T10:50:05.104Z,5.13
2023-01-28T10:52:31.621Z,5.13
2023-01-28T10:55:01.738Z,8.32
2023-01-28T10:57:28.459Z,6.88
2023-01-28T10:59:54.925Z,4.47
2023-01-28T11:02:24.465Z,4.68
2023-01-28T11:05:00.906Z,5.72
2023-01-28T11:07:27.523Z,5.40
2023-01-28T11:09:53.856Z,6.35
2023-01-28T11:12:25.075Z,6.00
2023-01-28T11:14:58.378Z,8.57
2023-01-28T11:17:26.704Z,5.35
2023-01-28T11:19:54.966Z,6.20
2023-01-28T11:22:36.003Z,6.18
2023-01-28T11:25:14.346Z,5.78
2023-01-28T11:27:40.775Z,6.53
2023-01-28T11:30:20.457Z,7.28
2023-01-28T11:32:53.298Z,7.50
2023-01-28T11:35:30.485Z,6.43
2023-01-28T11:37:57.923Z,10.45
2023-01-28T11:40:25.173Z,6.43
2023-01-28T11:42:52.551Z,6.13
2023-01-28T11:45:22.170Z,6.47
2023-01-28T11:47:54.663Z,11.93
2023-01-28T11:50:27.219Z,7.05
2023-01-28T11:53:06.486Z,7.00
2023-01-28T11:55:42.738Z,5.80
2023-01-28T11:58:35.018Z,6.07
2023-01-28T12:01:01.687Z,7.80
2023-01-28T12:03:33.776Z,5.82
2023-01-28T12:06:26.907Z,9.68
2023-01-28T12:09:07.400Z,6.88
2023-01-28T12:12:04.845Z,4.45
2023-01-28T12:14:40.379Z,5.72
2023-01-28T12:17:06.704Z,7.70
2023-01-28T12:19:51.926Z,9.93
2023-01-28T12:22:33.437Z,7.25
2023-01-28T12:25:11.793Z,6.25
2023-01-28T12:27:56.689Z,8.00
2023-01-28T12:30:35.225Z,7.75
2023-01-28T12:33:19.808Z,9.88
2023-01-28T12:35:51.058Z,6.05
2023-01-28T12:38:26.140Z,6.60
2023-01-28T12:41:01.268Z,5.35
2023-01-28T12:43:39.946Z,4.15
2023-01-28T12:46:11.118Z,5.22
2023-01-28T12:48:43.209Z,4.38
2023-01-28T12:51:21.644Z,4.28
2023-01-28T12:53:51.397Z,4.05
2023-01-28T12:56:23.739Z,5.28
2023-01-28T12:59:02.516Z,6.45
2023-01-28T13:01:49.148Z,5.55
2023-01-28T13:04:29.172Z,6.75
2023-01-28T13:07:00.194Z,5.13
2023-01-28T13:09:27.042Z,4.18
2023-01-28T13:11:56.245Z,11.48
2023-01-28T13:14:24.819Z,6.43
2023-01-28T13:16:51.195Z,3.28
2023-01-28T13:19:17.535Z,4.70
2023-01-28T13:21:49.330Z,6.38
2023-01-28T13:24:16.012Z,4.82
2023-01-28T13:26:51.518Z,5.07
2023-01-28T13:29:38.096Z,5.20
2023-01-28T13:32:24.467Z,6.88
2023-01-28T13:34:57.658Z,5.57
2023-01-28T13:37:53.604Z,5.05
2023-01-28T13:40:27.351Z,3.43
2023-01-28T13:43:01.661Z,4.88
2023-01-28T13:45:28.199Z,8.43
2023-01-28T13:48:13.152Z,3.63
2023-01-28T13:50:41.207Z,3.72
2023-01-28T13:53:17.443Z,4.22
2023-01-28T13:55:45.953Z,2.42
2023-01-28T13:58:21.426Z,4.50
2023-01-28T14:00:47.813Z,5.50
2023-01-28T14:03:33.614Z,5.18
2023-01-28T14:05:59.988Z,17.75
2023-01-28T14:08:45.100Z,9.32
2023-01-28T14:11:14.559Z,7.35
2023-01-28T14:13:49.834Z,9.45
2023-01-28T14:16:26.486Z,3.55
2023-01-28T14:18:53.272Z,3.13
2023-01-28T14:21:20.920Z,5.90
2023-01-28T14:23:51.582Z,3.88
2023-01-28T14:26:37.131Z,6.63
2023-01-28T14:29:10.610Z,4.43
2023-01-28T14:31:37.915Z,5.20
2023-01-28T14:34:22.820Z,7.53
2023-01-28T14:36:49.763Z,3.10
2023-01-28T14:39:42.720Z,4.95
2023-01-28T14:42:13.860Z,5.55
2023-01-28T14:44:40.746Z,5.88
2023-01-28T14:47:19.863Z,7.93
2023-01-28T14:50:04.695Z,6.43
2023-01-28T14:52:43.306Z,7.15
2023-01-28T14:55:20.603Z,5.80
2023-01-28T14:57:52.652Z,7.97
2023-01-28T15:00:23.621Z,9.15
2023-01-28T15:02:50.131Z,10.50
2023-01-28T15:05:23.803Z,10.80
2023-01-28T15:07:50.174Z,5.40
2023-01-28T15:10:21.245Z,6.35
2023-01-28T15:12:50.964Z,4.20
2023-01-28T15:15:23.237Z,3.53
2023-01-28T15:17:50.037Z,2.67
2023-01-28T15:20:18.263Z,1.60
2023-01-28T15:22:44.787Z,3.10
2023-01-28T15:25:18.390Z,2.40
2023-01-28T15:27:44.794Z,2.60
2023-01-28T15:30:20.327Z,5.05
2023-01-28T15:32:56.347Z,1.63
2023-01-28T15:35:22.659Z,2.25
2023-01-28T15:40:21.189Z,1.65
2023-01-28T15:42:48.551Z,1.60
2023-01-28T15:45:18.815Z,2.25
2023-01-28T15:47:45.974Z,2.97
2023-01-28T15:50:30.247Z,2.33
2023-01-28T15:52:56.845Z,2.22
2023-01-28T15:55:32.439Z,1.98
2023-01-28T15:58:09.191Z,3.03
2023-01-28T16:00:35.625Z,2.17
2023-01-28T16:03:07.490Z,1.58
2023-01-28T16:05:36.536Z,3.13
2023-01-28T16:08:04.060Z,1.55
2023-01-28T16:10:30.953Z,2.10
2023-01-28T16:13:04.818Z,7.28
2023-01-28T16:15:31.249Z,2.33
2023-01-28T16:17:57.675Z,1.42
2023-01-28T16:20:25.122Z,1.38
2023-01-28T16:22:54.494Z,1.80
2023-01-28T16:25:29.743Z,3.70
2023-01-28T16:27:56.888Z,2.33
2023-01-28T16:30:23.214Z,2.85
2023-01-28T16:32:49.923Z,3.72
2023-01-28T16:35:18.717Z,5.55
2023-01-28T16:37:45.801Z,3.53
2023-01-28T16:40:13.066Z,2.40
2023-01-28T16:42:39.780Z,2.15
2023-01-28T16:45:06.794Z,2.90
2023-01-28T16:47:33.233Z,2.83
2023-01-28T16:49:59.744Z,6.25
2023-01-28T16:52:26.141Z,4.63
2023-01-28T16:54:52.483Z,5.10
2023-01-28T16:57:20.078Z,3.53
2023-01-28T16:59:46.412Z,2.97
2023-01-28T17:02:13.341Z,10.57
2023-01-28T17:04:39.768Z,4.97
2023-01-28T17:07:06.890Z,4.45
2023-01-28T17:09:33.256Z,5.80
2023-01-28T17:12:00.524Z,7.43
2023-01-28T17:14:26.880Z,4.22
2023-01-28T17:16:53.255Z,5.13
2023-01-28T17:19:19.692Z,4.50
2023-01-28T17:21:46.030Z,5.60
2023-01-28T17:24:12.421Z,4.85
2023-01-28T17:26:38.816Z,4.88
2023-01-28T17:29:06.090Z,6.72
2023-01-28T17:31:32.635Z,5.22
2023-01-28T17:33:59.235Z,7.95
2023-01-28T17:36:26.174Z,5.82
2023-01-28T17:38:53.135Z,3.97
2023-01-28T17:41:20.120Z,4.53
2023-01-28T17:43:53.285Z,7.15
2023-01-28T17:46:20.163Z,6.25
2023-01-28T17:48:46.629Z,3.90
2023-01-28T17:51:13.448Z,7.35
2023-01-28T17:53:39.995Z,6.25
2023-01-28T17:56:06.709Z,3.83
2023-01-28T17:58:33.026Z,6.50
2023-01-28T18:00:59.414Z,4.82
2023-01-28T18:03:25.847Z,7.70
2023-01-28T18:05:59.029Z,7.15
2023-01-28T18:08:25.714Z,6.40
2023-01-28T18:10:52.115Z,6.78
2023-01-28T18:13:18.431Z,4.95
2023-01-28T18:15:44.813Z,5.32
2023-01-28T18:18:11.132Z,8.05
2023-01-28T18:20:37.455Z,8.98
2023-01-28T18:23:04.075Z,6.50
2023-01-28T18:25:30.428Z,6.65
2023-01-28T18:27:56.724Z,6.07
2023-01-28T18:30:23.093Z,3.97
2023-01-28T18:32:49.467Z,6.97
2023-01-28T18:35:16.270Z,5.50
2023-01-28T18:37:43.002Z,5.38
2023-01-28T18:40:09.541Z,6.18
2023-01-28T18:42:37.556Z,7.10
2023-01-28T18:45:04.457Z,6.53
2023-01-28T18:47:30.830Z,3.95
2023-01-28T18:49:57.211Z,4.50
2023-01-28T18:52:23.573Z,6.13
2023-01-28T18:54:49.906Z,4.15
2023-01-28T18:57:16.309Z,5.72
2023-01-28T18:59:42.608Z,4.40
2023-01-28T19:02:10.265Z,7.95
2023-01-28T19:04:36.636Z,10.68
2023-01-28T19:07:02.966Z,7.32
2023-01-28T19:09:29.444Z,6.10
2023-01-28T19:11:55.804Z,6.70
2023-01-28T19:14:22.238Z,3.83
2023-01-28T19:16:48.743Z,5.15
2023-01-28T19:19:15.155Z,5.05
2023-01-28T19:21:41.558Z,5.35
2023-01-28T19:24:10.446Z,5.20
2023-01-28T19:26:37.575Z,7.90
2023-01-28T19:29:06.356Z,7.95
2023-01-28T19:31:32.701Z,5.63
2023-01-28T19:34:00.037Z,5.63
2023-01-28T19:36:27.348Z,7.82
2023-01-28T19:38:56.628Z,5.43
2023-01-28T19:41:23.125Z,5.22
2023-01-28T19:43:50.046Z,6.95
2023-01-28T19:46:17.654Z,4.07
2023-01-28T19:48:44.522Z,3.25
2023-01-28T19:51:11.663Z,5.15
2023-01-28T19:53:38.831Z,6.47
2023-01-28T19:56:07.899Z,5.57
2023-01-28T19:58:35.033Z,5.03
2023-01-28T20:01:11.913Z,3.95
2023-01-28T20:03:38.463Z,7.57
2023-01-28T20:06:06.407Z,7.57
2023-01-28T20:08:33.277Z,7.13
2023-01-28T20:11:06.686Z,8.25
2023-01-28T20:13:33.740Z,8.68
2023-01-28T20:16:03.577Z,5.22
2023-01-28T20:18:29.974Z,4.90
2023-01-28T20:20:56.321Z,5.30
2023-01-28T20:23:23.149Z,4.57
2023-01-28T20:25:51.131Z,6.60
2023-01-28T20:28:17.601Z,7.00
2023-01-28T20:30:44.083Z,4.97
2023-01-28T20:33:10.534Z,7.32
2023-01-28T20:35:36.906Z,6.75
2023-01-28T20:38:04.241Z,11.32
2023-01-28T20:40:31.188Z,7.50
2023-01-28T20:42:57.678Z,7.07
2023-01-28T20:45:24.082Z,8.15
2023-01-28T20:47:51.126Z,6.50
2023-01-28T20:50:17.846Z,7.20
2023-01-28T20:52:44.352Z,7.70
2023-01-28T20:55:10.836Z,7.28
2023-01-28T20:57:37.224Z,7.95
2023-01-28T21:00:04.809Z,10.85
2023-01-28T21:02:31.636Z,10.32
2023-01-28T21:04:58.220Z,8.75
2023-01-28T21:07:24.635Z,6.10
2023-01-28T21:09:50.984Z,7.28
2023-01-28T21:12:17.318Z,6.40
2023-01-28T21:14:43.651Z,7.65
2023-01-28T21:17:10.145Z,8.05
2023-01-28T21:19:36.545Z,9.38
2023-01-28T21:22:03.000Z,8.38
2023-01-28T21:24:29.487Z,9.55
2023-01-28T21:26:55.848Z,10.25
2023-01-28T21:29:22.202Z,6.95
2023-01-28T21:31:48.563Z,8.90
2023-01-28T21:34:15.911Z,10.65
2023-01-28T21:36:42.320Z,11.05
2023-01-28T21:39:09.459Z,8.60
2023-01-28T21:41:35.825Z,7.32
2023-01-28T21:44:03.498Z,10.18
2023-01-28T21:46:30.804Z,9.52
2023-01-28T21:48:58.263Z,7.72
2023-01-28T21:51:40.352Z,9.35
2023-01-28T21:54:08.021Z,10.15
2023-01-28T21:56:34.463Z,9.82
2023-01-28T21:59:19.252Z,9.90
2023-01-28T22:01:46.021Z,7.90
2023-01-28T22:04:12.621Z,10.70
2023-01-28T22:06:39.075Z,9.07
2023-01-28T22:09:05.485Z,10.68
2023-01-28T22:11:32.453Z,8.82
2023-01-28T22:13:58.870Z,8.75
2023-01-28T22:16:25.273Z,8.30
2023-01-28T22:18:51.645Z,7.55
2023-01-28T22:21:19.675Z,6.75
2023-01-28T22:23:46.000Z,7.43
2023-01-28T22:26:12.460Z,7.18
2023-01-28T22:28:38.814Z,7.35
2023-01-28T22:31:15.501Z,7.95
2023-01-28T22:33:42.553Z,8.43
2023-01-28T22:36:11.503Z,7.68
2023-01-28T22:38:39.259Z,9.13
2023-01-28T22:41:06.393Z,7.68
2023-01-28T22:43:32.883Z,10.20
2023-01-28T22:46:00.266Z,8.60
2023-01-28T22:48:26.908Z,6.82
2023-01-28T22:50:53.278Z,10.48
2023-01-28T22:53:19.870Z,11.63
2023-01-28T22:55:49.862Z,10.35
2023-01-28T22:58:16.181Z,9.55
2023-01-28T23:00:49.899Z,9.60
2023-01-28T23:03:16.228Z,11.85
2023-01-28T23:05:43.556Z,9.23
2023-01-28T23:08:12.741Z,10.32
2023-01-28T23:10:40.075Z,10.10
2023-01-28T23:13:07.137Z,9.50
2023-01-28T23:15:52.330Z,10.73
2023-01-28T23:18:38.505Z,12.20
2023-01-28T23:21:34.768Z,9.85
2023-01-28T23:24:19.519Z,9.20
2023-01-28T23:26:53.203Z,10.85
2023-01-28T23:29:23.760Z,7.65
2023-01-28T23:31:52.478Z,8.32
2023-01-28T23:34:18.973Z,10.95
2023-01-28T23:36:45.364Z,8.48
2023-01-28T23:39:11.887Z,7.93
2023-01-28T23:41:38.474Z,11.20
2023-01-28T23:44:05.093Z,10.18
2023-01-28T23:46:39.540Z,9.70
2023-01-28T23:49:06.543Z,9.27
2023-01-28T23:51:32.975Z,8.82
2023-01-28T23:53:59.385Z,6.05
2023-01-28T23:56:25.712Z,11.05
2023-01-28T23:58:52.071Z,7.97
